| time (UTC) | temp F | wind direction | speed MPH | gust MPH | rain 1hr in | rain 24hr in | rain mn in | humidity % | barometer mb |
| 20260906050036 | 75 | 100 | 0.0 | 1.0 | 0.00 | 0.00 | 0.00 | 50 | 1003.4 |
| 20260906044535 | 76 | 103 | 0.0 | 0.0 | 0.00 | 0.00 | 0.00 | 48 | 1003.4 |
| 20260906043035 | 76 | 105 | 0.0 | 1.0 | 0.00 | 0.00 | 0.00 | 47 | 1003.0 |
| 20260906041536 | 76 | 105 | 0.0 | 1.0 | 0.00 | 0.00 | 0.00 | 47 | 1002.9 |
| 20260906040040 | 76 | 115 | 0.0 | 0.0 | 0.00 | 0.00 | 0.00 | 47 | 1002.7 |
| 20260906034541 | 77 | 115 | 0.0 | 0.0 | 0.00 | 0.00 | 0.00 | 48 | 1002.8 |
| 20260906033032 | 78 | 115 | 0.0 | 0.0 | 0.00 | 0.00 | 0.00 | 47 | 1002.7 |
| 20260906031533 | 79 | 115 | 0.0 | 1.0 | 0.00 | 0.00 | 0.00 | 47 | 1002.5 |
| 20260906030031 | 80 | 115 | 0.0 | 0.0 | 0.00 | 0.00 | 0.00 | 46 | 1002.2 |
| 20260906024529 | 81 | 121 | 0.0 | 0.0 | 0.00 | 0.00 | 0.00 | 47 | 1002.0 |
| 20260906023030 | 81 | 122 | 0.0 | 0.0 | 0.00 | 0.00 | 0.00 | 43 | 1001.7 |
| 20260906021529 | 81 | 122 | 0.0 | 0.0 | 0.00 | 0.00 | 0.00 | 40 | 1001.4 |
| 20260906020032 | 83 | 122 | 0.0 | 0.0 | 0.00 | 0.00 | 0.00 | 39 | 1000.9 |
| 20260906014540 | 85 | 122 | 0.0 | 0.0 | 0.00 | 0.00 | 0.00 | 37 | 1000.7 |
| 20260906013031 | 88 | 122 | 0.0 | 0.0 | 0.00 | 0.00 | 0.00 | 36 | 1000.5 |
| 20260906011527 | 92 | 122 | 0.0 | 0.0 | 0.00 | 0.00 | 0.00 | 33 | 1000.4 |
| 20260906010027 | 95 | 122 | 0.0 | 0.0 | 0.00 | 0.00 | 0.00 | 31 | 1000.4 |
| 20260906004526 | 95 | 122 | 0.0 | 0.0 | 0.00 | 0.00 | 0.00 | 30 | 1000.4 |
| 20260906003025 | 95 | 122 | 0.0 | 0.0 | 0.00 | 0.00 | 0.00 | 31 | 1000.5 |
| 20260906001524 | 94 | 122 | 0.0 | 1.0 | 0.00 | 0.00 | 0.00 | 27 | 1000.5 |
| 20260906000024 | 92 | 122 | 0.0 | 3.0 | 0.00 | 0.00 | 0.00 | 31 | 1000.5 |
| 20260905234522 | 93 | 119 | 0.0 | 3.0 | 0.00 | 0.00 | 0.00 | 29 | 1000.4 |
| 20260905233033 | 94 | 46 | 0.0 | 1.0 | 0.00 | 0.00 | 0.00 | 28 | 1000.2 |
| 20260905231523 | 94 | 46 | 0.0 | 1.0 | 0.00 | 0.00 | 0.00 | 31 | 1000.2 |
| 20260905230020 | 94 | 46 | 0.0 | 1.0 | 0.00 | 0.00 | 0.00 | 27 | 1000.3 |
| 20260905224521 | 96 | 47 | 0.0 | 1.0 | 0.00 | 0.00 | 0.00 | 26 | 1000.4 |
| 20260905223018 | 99 | 47 | 0.0 | 1.0 | 0.00 | 0.00 | 0.00 | 23 | 1000.3 |
| 20260905221529 | 101 | 47 | 0.0 | 1.0 | 0.00 | 0.00 | 0.00 | 22 | 1000.4 |
| 20260905220017 | 101 | 46 | 0.0 | 1.0 | 0.00 | 0.00 | 0.00 | 22 | 1000.4 |
| 20260905214515 | 102 | 46 | 0.0 | 1.0 | 0.00 | 0.00 | 0.00 | 22 | 1000.5 |
| 20260905213013 | 101 | 44 | 0.0 | 1.0 | 0.00 | 0.00 | 0.00 | 21 | 1000.5 |
| 20260905211519 | 101 | 44 | 0.0 | 1.0 | 0.00 | 0.00 | 0.00 | 22 | 1000.6 |
| 20260905210013 | 101 | 44 | 0.0 | 2.0 | 0.00 | 0.00 | 0.00 | 22 | 1000.7 |
| 20260905204510 | 101 | 44 | 0.0 | 1.0 | 0.00 | 0.00 | 0.00 | 23 | 1000.9 |
| 20260905203009 | 101 | 43 | 0.0 | 1.0 | 0.00 | 0.00 | 0.00 | 23 | 1001.3 |
| 20260905201504 | 99 | 36 | 0.0 | 2.0 | 0.00 | 0.00 | 0.00 | 22 | 1001.4 |
| 20260905200002 | 99 | 34 | 0.0 | 3.0 | 0.00 | 0.00 | 0.00 | 22 | 1001.5 |
| 20260905194557 | 98 | 35 | 0.0 | 3.0 | 0.00 | 0.00 | 0.00 | 21 | 1001.7 |
| 20260905193109 | 97 | 36 | 0.0 | 2.0 | 0.00 | 0.00 | 0.00 | 26 | 1002.0 |
| 20260905191552 | 96 | 35 | 0.0 | 2.0 | 0.00 | 0.00 | 0.00 | 24 | 1002.2 |
| 20260905190047 | 95 | 35 | 0.0 | 1.0 | 0.00 | 0.00 | 0.00 | 25 | 1002.5 |
| 20260905184543 | 93 | 31 | 0.0 | 4.0 | 0.00 | 0.00 | 0.00 | 27 | 1002.7 |
| 20260905183041 | 92 | 38 | 0.0 | 3.0 | 0.00 | 0.00 | 0.00 | 29 | 1002.9 |
| 20260905181534 | 91 | 17 | 0.0 | 3.0 | 0.00 | 0.00 | 0.00 | 27 | 1003.1 |
| 20260905180031 | 90 | 13 | 0.0 | 4.0 | 0.00 | 0.00 | 0.00 | 30 | 1003.3 |
| 20260905174528 | 89 | 18 | 0.0 | 3.0 | 0.00 | 0.00 | 0.00 | 30 | 1003.6 |
| 20260905173023 | 88 | 5 | 1.0 | 4.0 | 0.00 | 0.00 | 0.00 | 31 | 1003.8 |
| 20260905171531 | 86 | 342 | 1.0 | 4.0 | 0.00 | 0.00 | 0.00 | 32 | 1003.9 |
| 20260905170016 | 85 | 9 | 0.0 | 4.0 | 0.00 | 0.00 | 0.00 | 33 | 1003.9 |
| 20260905164520 | 83 | 9 | 1.0 | 3.0 | 0.00 | 0.00 | 0.00 | 35 | 1004.1 |
| 20260905163007 | 82 | 285 | 1.0 | 4.0 | 0.00 | 0.00 | 0.00 | 37 | 1004.4 |
| 20260905161503 | 80 | 28 | 0.0 | 2.0 | 0.00 | 0.00 | 0.00 | 40 | 1004.4 |
| 20260905160101 | 79 | 29 | 0.0 | 4.0 | 0.00 | 0.00 | 0.00 | 40 | 1004.6 |
| 20260905154606 | 77 | 218 | 1.0 | 5.0 | 0.00 | 0.00 | 0.00 | 44 | 1004.6 |
| 20260905153054 | 77 | 229 | 0.0 | 2.0 | 0.00 | 0.00 | 0.00 | 46 | 1004.7 |
| 20260905151551 | 76 | 227 | 0.0 | 3.0 | 0.00 | 0.00 | 0.00 | 49 | 1004.6 |
| 20260905150048 | 73 | 42 | 0.0 | 2.0 | 0.00 | 0.00 | 0.00 | 56 | 1004.7 |
| 20260905144547 | 71 | 42 | 0.0 | 2.0 | 0.00 | 0.00 | 0.00 | 64 | 1004.7 |
| 20260905143046 | 70 | 42 | 0.0 | 2.0 | 0.00 | 0.00 | 0.00 | 67 | 1004.8 |
| 20260905141546 | 68 | 42 | 0.0 | 2.0 | 0.00 | 0.00 | 0.00 | 70 | 1004.7 |
| 20260905140046 | 66 | 42 | 0.0 | 2.0 | 0.00 | 0.00 | 0.00 | 73 | 1004.9 |
| 20260905134547 | 65 | 42 | 0.0 | 0.0 | 0.00 | 0.00 | 0.00 | 75 | 1005.0 |
| 20260905133044 | 65 | 42 | 0.0 | 0.0 | 0.00 | 0.00 | 0.00 | 76 | 1005.0 |
| 20260905131542 | 64 | 42 | 0.0 | 3.0 | 0.00 | 0.00 | 0.00 | 77 | 1004.8 |
| 20260905130040 | 64 | 43 | 0.0 | 4.0 | 0.00 | 0.00 | 0.00 | 77 | 1004.5 |
| 20260905124539 | 64 | 44 | 0.0 | 3.0 | 0.00 | 0.00 | 0.00 | 77 | 1004.3 |
| 20260905123037 | 64 | 44 | 0.0 | 3.0 | 0.00 | 0.00 | 0.00 | 78 | 1004.2 |
| 20260905121537 | 64 | 44 | 0.0 | 3.0 | 0.00 | 0.00 | 0.00 | 77 | 1004.1 |
| 20260905120037 | 64 | 44 | 0.0 | 3.0 | 0.00 | 0.00 | 0.00 | 77 | 1003.9 |
| 20260905114537 | 64 | 44 | 0.0 | 2.0 | 0.00 | 0.00 | 0.00 | 78 | 1004.1 |
| 20260905113037 | 64 | 44 | 0.0 | 1.0 | 0.00 | 0.00 | 0.00 | 79 | 1004.2 |
| 20260905111535 | 64 | 44 | 0.0 | 3.0 | 0.00 | 0.00 | 0.00 | 77 | 1004.1 |
| 20260905110035 | 65 | 45 | 0.0 | 2.0 | 0.00 | 0.00 | 0.00 | 76 | 1004.2 |
| 20260905104532 | 65 | 44 | 0.0 | 4.0 | 0.00 | 0.00 | 0.00 | 76 | 1004.1 |
| 20260905103039 | 65 | 46 | 0.0 | 3.0 | 0.00 | 0.00 | 0.00 | 74 | 1004.0 |
| 20260905094521 | 66 | 30 | 0.0 | 3.0 | 0.00 | 0.00 | 0.00 | 70 | 1004.1 |
| 20260905093018 | 66 | 31 | 2.0 | 4.0 | 0.00 | 0.00 | 0.00 | 67 | 1003.9 |
| 20260905091514 | 67 | 65 | 0.0 | 5.0 | 0.00 | 0.00 | 0.00 | 66 | 1003.9 |
| 20260905090011 | 68 | 71 | 0.0 | 3.0 | 0.00 | 0.00 | 0.00 | 66 | 1003.8 |
| 20260905084507 | 69 | 73 | 0.0 | 3.0 | 0.00 | 0.00 | 0.00 | 66 | 1003.7 |
| 20260905083010 | 70 | 82 | 0.0 | 3.0 | 0.00 | 0.00 | 0.00 | 66 | 1003.9 |
| 20260905081503 | 70 | 84 | 0.0 | 2.0 | 0.00 | 0.00 | 0.00 | 64 | 1003.8 |
| 20260905080101 | 71 | 84 | 0.0 | 0.0 | 0.00 | 0.00 | 0.00 | 61 | 1003.6 |
| 20260905074558 | 72 | 83 | 0.0 | 1.0 | 0.00 | 0.00 | 0.00 | 59 | 1003.6 |
| 20260905073056 | 73 | 84 | 0.0 | 1.0 | 0.00 | 0.00 | 0.00 | 56 | 1003.5 |
| 20260905071553 | 73 | 84 | 0.0 | 3.0 | 0.00 | 0.00 | 0.00 | 58 | 1003.5 |
| 20260905070052 | 74 | 91 | 0.0 | 1.0 | 0.00 | 0.00 | 0.00 | 54 | 1003.4 |
| 20260905064553 | 73 | 90 | 0.0 | 2.0 | 0.00 | 0.00 | 0.00 | 54 | 1003.2 |
| 20260905063050 | 73 | 128 | 0.0 | 1.0 | 0.00 | 0.00 | 0.00 | 54 | 1003.1 |
| 20260905061558 | 73 | 130 | 0.0 | 1.0 | 0.00 | 0.00 | 0.00 | 53 | 1003.1 |
| 20260905060048 | 74 | 130 | 0.0 | 0.0 | 0.00 | 0.00 | 0.00 | 51 | 1003.1 |
| 20260905054544 | 75 | 130 | 0.0 | 0.0 | 0.00 | 0.00 | 0.00 | 50 | 1002.9 |
| 20260905053044 | 76 | 130 | 0.0 | 0.0 | 0.00 | 0.00 | 0.00 | 48 | 1002.9 |
| 20260905051543 | 77 | 130 | 0.0 | 1.0 | 0.00 | 0.00 | 0.00 | 46 | 1003.0 |
| 20260905050043 | 78 | 131 | 0.0 | 1.0 | 0.00 | 0.00 | 0.00 | 44 | 1003.0 |